Time;durP1;ratioP1;P1;durP2;ratioP2;P2;SDS_P1;SDS_P2;PMS_P1;PMS_P2;Temp;Humidity;BMP_temperature;BMP_pressure;BME280_temperature;BME280_humidity;BME280_pressure;Samples;Min_cycle;Max_cycle;Signal;HPM_P1;HPM_P2
2021/07/25 00:00:14;;;;;;;30.50;21.63;;;19.30;99.90;;;;;;5039871;28;20451;-84
2021/07/25 00:02:40;;;;;;;30.53;23.03;;;19.30;99.90;;;;;;5032484;28;20863;-84
2021/07/25 00:05:09;;;;;;;28.10;21.57;;;19.30;99.90;;;;;;5021466;28;20461;-84
2021/07/25 00:07:37;;;;;;;28.87;22.30;;;19.30;99.90;;;;;;5021062;28;20446;-84
2021/07/25 00:10:06;;;;;;;30.67;22.17;;;19.20;99.90;;;;;;5020732;28;20454;-84
2021/07/25 00:12:33;;;;;;;34.73;22.53;;;19.20;99.90;;;;;;5020776;28;20525;-84
2021/07/25 00:14:59;;;;;;;29.33;22.40;;;19.20;99.90;;;;;;5021580;28;20549;-84
2021/07/25 00:17:26;;;;;;;28.53;22.60;;;19.20;99.90;;;;;;5022237;28;20456;-84
2021/07/25 00:19:53;;;;;;;27.90;22.70;;;19.10;99.90;;;;;;5020765;28;20460;-84
2021/07/25 00:22:57;;;;;;;32.40;23.03;;;19.10;99.90;;;;;;5095137;22;20498;-84
2021/07/25 00:34:58;;;;;;;26.73;18.63;;;19.00;99.90;;;;;;5077557;28;20442;-85
2021/07/25 00:41:57;;;;;;;25.40;18.27;;;18.90;99.90;;;;;;5043015;28;20445;-85
2021/07/25 00:54:30;;;;;;;27.50;20.47;;;18.90;99.90;;;;;;3222662;26;20525;-85
2021/07/25 01:13:41;;;;;;;24.70;18.00;;;18.80;99.90;;;;;;5165248;22;20507;-85
2021/07/25 01:23:18;;;;;;;21.87;16.83;;;18.80;99.90;;;;;;5114291;22;20478;-83
2021/07/25 01:32:25;;;;;;;28.63;19.33;;;18.70;99.90;;;;;;5013450;28;20472;-83
2021/07/25 01:35:02;;;;;;;26.00;19.40;;;18.70;99.90;;;;;;5010536;28;20521;-83
2021/07/25 01:41:04;;;;;;;28.83;21.50;;;18.80;99.90;;;;;;5068501;28;20431;-84
2021/07/25 01:46:30;;;;;;;28.70;19.97;;;18.80;99.90;;;;;;5072174;28;20455;-84
2021/07/25 01:49:00;;;;;;;24.73;19.03;;;18.80;99.90;;;;;;5071635;28;20446;-83
2021/07/25 01:52:03;;;;;;;23.33;18.50;;;18.80;99.90;;;;;;5073464;28;20495;-84
2021/07/25 01:54:30;;;;;;;22.83;18.23;;;18.80;99.90;;;;;;5075932;28;20446;-84
2021/07/25 01:57:35;;;;;;;28.20;19.97;;;18.80;99.90;;;;;;5073889;28;20483;-84
2021/07/25 02:09:39;;;;;;;29.20;20.40;;;18.70;99.90;;;;;;5049044;28;20787;-83
2021/07/25 02:12:54;;;;;;;;;;;;;;;;;;;;;
2021/07/25 02:18:50;;;;;;;25.83;19.27;;;18.70;99.90;;;;;;4993598;28;20936;-83
2021/07/25 02:21:25;;;;;;;24.20;18.90;;;18.70;99.90;;;;;;5057595;28;20463;-85
2021/07/25 02:23:57;;;;;;;28.30;18.27;;;18.70;99.90;;;;;;5057979;28;20518;-83
2021/07/25 02:26:31;;;;;;;26.63;20.97;;;18.70;99.90;;;;;;5022407;28;20459;-84
2021/07/25 02:32:51;;;;;;;30.03;21.07;;;18.70;99.90;;;;;;5214852;22;20503;-84
2021/07/25 02:35:57;;;;;;;23.90;18.10;;;18.60;99.90;;;;;;5061387;28;20444;-85
2021/07/25 02:42:01;;;;;;;28.60;21.17;;;18.70;99.90;;;;;;5067476;22;20489;-84
2021/07/25 02:47:31;;;;;;;28.10;20.53;;;18.60;99.90;;;;;;5094677;28;20988;-84
2021/07/25 02:53:22;;;;;;;26.37;21.90;;;18.60;99.90;;;;;;5085021;22;20488;-84
2021/07/25 02:56:14;;;;;;;31.87;21.60;;;18.60;99.90;;;;;;5033754;28;20445;-84
2021/07/25 03:07:49;;;;;;;28.90;22.00;;;18.60;99.90;;;;;;5017526;28;20449;-85
2021/07/25 03:17:35;;;;;;;28.40;20.57;;;18.50;99.90;;;;;;4987359;28;20504;-84
2021/07/25 03:32:27;;;;;;;29.93;19.50;;;18.40;99.90;;;;;;4973507;28;20480;-85
2021/07/25 03:35:36;;;;;;;29.60;21.10;;;18.40;99.90;;;;;;5021243;28;20484;-83
2021/07/25 03:41:57;;;;;;;27.50;20.70;;;18.40;99.90;;;;;;5002005;22;20475;-83
2021/07/25 03:44:58;;;;;;;24.70;18.73;;;18.40;99.90;;;;;;5079695;28;20492;-85
2021/07/25 03:50:56;;;;;;;27.33;18.80;;;18.40;99.90;;;;;;5061607;28;20530;-84
2021/07/25 03:56:44;;;;;;;27.43;19.30;;;18.30;99.90;;;;;;5073962;28;20435;-83
2021/07/25 03:59:34;;;;;;;27.43;20.30;;;18.30;99.90;;;;;;5082358;28;20443;-85
2021/07/25 04:02:04;;;;;;;25.10;18.63;;;18.30;99.90;;;;;;5083053;28;20483;-85
2021/07/25 04:04:42;;;;;;;29.13;20.87;;;18.30;99.90;;;;;;5074483;28;20548;-86
2021/07/25 04:07:13;;;;;;;26.70;19.03;;;18.30;99.90;;;;;;5054654;28;20458;-86
2021/07/25 04:09:40;;;;;;;28.87;20.40;;;18.30;99.90;;;;;;5055004;28;20444;-86
2021/07/25 04:12:12;;;;;;;25.47;19.13;;;18.30;99.90;;;;;;5055139;28;20571;-85
2021/07/25 04:14:42;;;;;;;25.90;19.60;;;18.30;99.90;;;;;;5054627;28;20452;-85
2021/07/25 04:17:11;;;;;;;26.70;18.60;;;18.30;99.90;;;;;;5055266;28;20510;-86
2021/07/25 04:19:49;;;;;;;30.37;20.37;;;18.30;99.90;;;;;;5055399;28;20473;-85
2021/07/25 04:22:18;;;;;;;25.57;18.50;;;18.30;99.90;;;;;;5058192;28;20486;-85
2021/07/25 04:24:44;;;;;;;27.97;20.30;;;18.30;99.90;;;;;;5059206;28;20594;-85
2021/07/25 04:27:12;;;;;;;28.43;19.17;;;18.40;99.90;;;;;;5058309;28;20447;-86
2021/07/25 04:29:39;;;;;;;27.27;20.27;;;18.40;99.90;;;;;;5058644;28;20547;-85
2021/07/25 04:32:07;;;;;;;27.07;19.47;;;18.40;99.90;;;;;;5058904;28;20476;-86
2021/07/25 04:34:34;;;;;;;25.80;19.50;;;18.40;99.90;;;;;;5059030;28;20446;-85
2021/07/25 04:37:04;;;;;;;27.47;19.20;;;18.40;99.90;;;;;;5059675;28;20452;-85
2021/07/25 04:39:33;;;;;;;29.33;19.10;;;18.40;99.90;;;;;;5054529;28;21187;-84
2021/07/25 04:42:00;;;;;;;29.27;19.70;;;18.50;99.90;;;;;;5053205;28;20476;-84
2021/07/25 04:44:32;;;;;;;28.63;20.53;;;18.50;99.90;;;;;;5053449;28;20488;-84
2021/07/25 04:47:03;;;;;;;29.03;20.13;;;18.50;99.90;;;;;;5052483;28;20473;-84
2021/07/25 04:49:35;;;;;;;26.30;19.20;;;18.50;99.90;;;;;;5051999;28;20459;-83
2021/07/25 04:58:52;;;;;;;29.70;22.10;;;18.60;99.90;;;;;;4991458;28;20946;-84
2021/07/25 05:05:36;;;;;;;29.53;21.80;;;18.70;99.90;;;;;;4931526;29;20537;-84
2021/07/25 05:28:48;;;;;;;28.37;21.57;;;19.00;99.90;;;;;;5052450;28;20435;-85
2021/07/25 05:31:42;;;;;;;30.23;21.20;;;19.00;99.90;;;;;;5097651;28;20502;-85
2021/07/25 05:34:20;;;;;;;27.30;18.80;;;19.00;99.90;;;;;;5072249;28;20450;-86
2021/07/25 05:36:57;;;;;;;29.53;20.10;;;19.10;99.90;;;;;;5096801;28;20491;-86
2021/07/25 05:42:21;;;;;;;25.43;18.83;;;19.20;99.90;;;;;;5096024;28;20470;-86
2021/07/25 05:47:31;;;;;;;23.60;16.40;;;19.30;99.90;;;;;;5103683;28;21050;-86
2021/07/25 05:49:59;;;;;;;20.63;14.83;;;19.20;99.90;;;;;;5106594;28;20499;-85
2021/07/25 05:52:26;;;;;;;21.30;15.07;;;19.30;99.90;;;;;;5109659;28;20474;-85
2021/07/25 05:54:53;;;;;;;18.83;13.40;;;19.30;99.90;;;;;;5106435;28;21028;-85
2021/07/25 05:57:19;;;;;;;22.07;13.93;;;19.40;99.90;;;;;;5098325;28;20860;-85
2021/07/25 05:59:49;;;;;;;21.57;14.20;;;19.50;99.90;;;;;;5095835;28;20438;-84
2021/07/25 06:02:16;;;;;;;19.73;14.00;;;19.50;99.90;;;;;;5096397;28;20852;-85
2021/07/25 06:04:42;;;;;;;21.43;12.90;;;19.60;99.90;;;;;;5095278;28;21009;-86
2021/07/25 06:07:11;;;;;;;18.70;12.47;;;19.60;99.90;;;;;;5094664;28;20596;-86
2021/07/25 06:09:37;;;;;;;18.83;13.20;;;19.60;99.90;;;;;;5094759;28;20955;-86
2021/07/25 06:12:04;;;;;;;16.80;11.90;;;19.70;99.90;;;;;;5099210;28;20469;-86
2021/07/25 06:14:31;;;;;;;18.30;11.83;;;19.70;99.90;;;;;;5099583;28;20434;-85
2021/07/25 06:16:58;;;;;;;15.43;11.77;;;19.80;99.90;;;;;;5097133;28;20434;-87
2021/07/25 06:19:25;;;;;;;17.00;9.60;;;19.70;99.90;;;;;;5093719;28;20445;-87
2021/07/25 06:21:52;;;;;;;14.60;9.70;;;19.80;99.90;;;;;;5099104;28;21008;-88
2021/07/25 06:24:20;;;;;;;17.60;10.90;;;19.70;99.90;;;;;;5108296;28;20473;-88
2021/07/25 06:29:44;;;;;;;15.37;9.73;;;19.80;99.90;;;;;;5052389;27;20460;-88
2021/07/25 06:32:15;;;;;;;15.50;9.53;;;19.90;99.90;;;;;;5108615;28;20514;-89
2021/07/25 06:34:42;;;;;;;11.80;7.57;;;19.80;99.90;;;;;;5103934;28;20779;-88
2021/07/25 06:37:09;;;;;;;14.33;8.00;;;19.80;99.90;;;;;;5094736;28;20465;-88
2021/07/25 06:39:38;;;;;;;13.90;7.10;;;19.80;99.90;;;;;;5111114;28;20441;-88
2021/07/25 06:42:08;;;;;;;14.83;8.60;;;19.90;99.90;;;;;;5108924;28;20515;-88
2021/07/25 06:44:35;;;;;;;11.63;6.70;;;19.90;99.90;;;;;;5107512;28;20486;-89
2021/07/25 06:47:02;;;;;;;10.43;6.33;;;19.90;99.90;;;;;;5105623;28;20445;-88
2021/07/25 06:49:29;;;;;;;10.20;6.20;;;19.90;99.90;;;;;;5131136;22;20497;-87
2021/07/25 06:51:56;;;;;;;12.33;6.63;;;20.00;99.90;;;;;;5085465;28;20445;-86
2021/07/25 06:54:23;;;;;;;11.77;5.90;;;20.00;99.90;;;;;;5088780;28;20436;-87
2021/07/25 06:56:51;;;;;;;12.83;6.40;;;20.20;99.90;;;;;;5067487;28;20833;-86
2021/07/25 06:59:18;;;;;;;12.40;5.67;;;20.20;99.90;;;;;;5087180;28;20505;-86
2021/07/25 07:01:46;;;;;;;11.63;5.30;;;20.30;99.90;;;;;;5077026;28;20935;-87
2021/07/25 07:04:13;;;;;;;9.77;4.20;;;20.30;99.90;;;;;;5075316;28;20478;-87
2021/07/25 07:06:41;;;;;;;9.53;4.60;;;20.30;99.90;;;;;;5074911;28;20459;-87
2021/07/25 07:09:08;;;;;;;13.10;4.87;;;20.40;99.90;;;;;;5073360;28;20475;-87
2021/07/25 07:11:35;;;;;;;10.30;5.10;;;20.30;99.90;;;;;;5073930;28;20458;-88
2021/07/25 07:14:03;;;;;;;10.03;4.30;;;20.50;99.90;;;;;;5076706;28;20455;-87
2021/07/25 07:16:32;;;;;;;10.53;4.73;;;20.50;99.90;;;;;;5074286;28;20541;-87
2021/07/25 07:18:59;;;;;;;12.57;4.20;;;20.60;99.90;;;;;;5079401;28;20470;-87
2021/07/25 07:21:26;;;;;;;10.20;4.23;;;20.70;99.90;;;;;;5090221;28;20450;-87
2021/07/25 07:23:53;;;;;;;10.67;4.90;;;20.80;99.90;;;;;;5073851;28;20893;-88
2021/07/25 07:26:20;;;;;;;11.13;4.70;;;20.90;99.90;;;;;;5077763;28;20454;-87
2021/07/25 07:28:47;;;;;;;11.00;5.03;;;20.90;99.90;;;;;;5091173;28;20574;-88
2021/07/25 07:31:17;;;;;;;10.33;3.80;;;21.10;99.90;;;;;;5092897;28;20542;-87
2021/07/25 07:33:44;;;;;;;11.20;3.80;;;21.10;99.90;;;;;;5093261;28;20956;-88
2021/07/25 07:36:11;;;;;;;11.03;4.20;;;21.10;99.90;;;;;;5091642;28;21137;-88
2021/07/25 07:38:38;;;;;;;10.57;3.97;;;21.10;99.90;;;;;;5072845;28;20462;-88
2021/07/25 07:41:05;;;;;;;14.03;4.77;;;21.30;99.90;;;;;;5091271;28;21037;-87
2021/07/25 07:43:32;;;;;;;13.37;4.10;;;21.40;99.90;;;;;;5080243;28;20930;-88
2021/07/25 07:45:59;;;;;;;11.67;4.60;;;21.50;99.90;;;;;;5086347;28;20524;-87
2021/07/25 07:48:27;;;;;;;12.17;4.30;;;21.50;99.90;;;;;;5090915;28;20477;-87
2021/07/25 07:50:54;;;;;;;10.03;3.80;;;21.50;99.90;;;;;;5085387;28;20451;-89
2021/07/25 07:53:21;;;;;;;11.07;3.77;;;21.60;99.90;;;;;;5073165;28;20439;-88
2021/07/25 07:55:49;;;;;;;12.37;4.23;;;21.50;99.90;;;;;;5075223;28;20565;-88
2021/07/25 07:58:18;;;;;;;9.60;3.20;;;21.50;99.90;;;;;;5074141;28;20478;-90
2021/07/25 08:00:45;;;;;;;12.30;4.90;;;21.50;99.90;;;;;;5075493;28;20542;-87
2021/07/25 08:03:12;;;;;;;10.80;3.83;;;21.60;99.90;;;;;;5075918;28;21104;-87
2021/07/25 08:05:41;;;;;;;10.00;4.20;;;21.60;99.90;;;;;;5075894;28;20507;-88
2021/07/25 08:08:08;;;;;;;10.47;4.40;;;21.70;99.90;;;;;;5080568;28;20490;-87
2021/07/25 08:10:34;;;;;;;12.20;4.10;;;21.90;99.90;;;;;;5075559;28;20507;-88
2021/07/25 08:13:01;;;;;;;9.40;3.73;;;22.10;99.90;;;;;;5080471;28;20480;-89
2021/07/25 08:15:28;;;;;;;10.23;4.00;;;22.30;99.90;;;;;;5093921;28;20500;-88
2021/07/25 08:17:55;;;;;;;11.63;3.83;;;22.40;99.90;;;;;;5093694;28;20457;-86
2021/07/25 08:20:22;;;;;;;11.17;4.30;;;22.50;99.90;;;;;;5101062;28;20438;-89
2021/07/25 08:22:51;;;;;;;11.60;3.60;;;22.70;99.90;;;;;;5116928;28;20501;-87
2021/07/25 08:25:18;;;;;;;10.93;3.87;;;22.80;99.90;;;;;;5096960;28;20496;-88
2021/07/25 08:27:45;;;;;;;9.23;3.10;;;22.90;99.90;;;;;;5092187;28;20519;-88
2021/07/25 08:30:13;;;;;;;10.07;3.63;;;23.20;99.90;;;;;;5092320;28;20473;-88
2021/07/25 08:32:40;;;;;;;9.60;3.50;;;23.30;99.90;;;;;;5092618;28;20458;-89
2021/07/25 08:35:07;;;;;;;11.53;4.00;;;23.30;99.90;;;;;;5092337;28;20446;-89
2021/07/25 08:37:34;;;;;;;10.97;3.53;;;23.30;99.90;;;;;;5092428;28;20565;-89
2021/07/25 08:40:03;;;;;;;10.13;3.67;;;23.20;99.90;;;;;;5090705;28;20572;-88
2021/07/25 08:42:36;;;;;;;11.20;3.70;;;23.30;99.90;;;;;;5094006;28;20456;-85
2021/07/25 08:45:04;;;;;;;9.93;3.20;;;23.40;99.90;;;;;;5097589;28;20472;-86
2021/07/25 08:48:18;;;;;;;10.90;4.00;;;23.60;99.90;;;;;;5097585;28;20458;-86
2021/07/25 08:54:08;;;;;;;12.23;4.10;;;24.20;99.90;;;;;;5097134;28;20460;-86
2021/07/25 08:59:51;;;;;;;10.77;3.60;;;24.70;99.90;;;;;;5095037;28;20505;-86
2021/07/25 09:02:21;;;;;;;12.37;4.40;;;24.90;99.90;;;;;;5100731;28;20470;-86
2021/07/25 09:04:54;;;;;;;10.33;3.40;;;25.00;99.90;;;;;;5101219;28;20568;-88
2021/07/25 09:07:49;;;;;;;11.13;4.30;;;25.20;99.90;;;;;;5102946;28;20473;-86
2021/07/25 09:10:31;;;;;;;11.50;4.27;;;25.30;99.90;;;;;;5106974;28;20480;-86
2021/07/25 09:13:18;;;;;;;12.00;4.00;;;25.50;99.90;;;;;;5107017;28;21180;-87
2021/07/25 09:16:09;;;;;;;14.50;3.90;;;25.50;99.90;;;;;;5106517;28;20470;-86
2021/07/25 09:18:57;;;;;;;10.67;3.60;;;25.50;99.90;;;;;;5102280;28;20797;-86
2021/07/25 09:22:02;;;;;;;12.77;3.10;;;25.80;99.90;;;;;;5104489;28;20446;-85
2021/07/25 09:24:35;;;;;;;12.63;3.90;;;26.00;99.90;;;;;;5104139;28;20493;-87
2021/07/25 09:30:48;;;;;;;11.10;3.63;;;26.00;99.90;;;;;;5090906;28;20566;-87
2021/07/25 09:33:59;;;;;;;11.13;2.90;;;26.30;99.90;;;;;;5074121;28;20510;-86
2021/07/25 09:37:19;;;;;;;;;;;;;;;;;;;;;
2021/07/25 09:40:11;;;;;;;12.03;3.47;;;26.60;99.90;;;;;;5003403;28;20481;-87
2021/07/25 09:42:48;;;;;;;10.57;3.40;;;26.70;99.90;;;;;;5038413;28;20429;-86
2021/07/25 09:45:50;;;;;;;12.00;3.20;;;27.10;99.90;;;;;;5040954;28;20538;-85
2021/07/25 09:48:45;;;;;;;14.17;3.63;;;27.30;99.90;;;;;;5044831;28;20525;-87
2021/07/25 09:51:53;;;;;;;12.63;3.23;;;27.30;99.90;;;;;;5083304;28;20450;-85
2021/07/25 09:54:46;;;;;;;13.07;3.30;;;27.50;99.90;;;;;;5081626;28;20475;-86
2021/07/25 09:57:32;;;;;;;15.10;3.50;;;27.70;99.90;;;;;;5079194;28;20524;-85
2021/07/25 10:00:29;;;;;;;19.20;2.83;;;27.70;99.90;;;;;;5080137;28;20552;-87
2021/07/25 10:03:03;;;;;;;20.30;3.63;;;27.80;99.90;;;;;;5085348;28;20450;-88
2021/07/25 10:05:45;;;;;;;21.87;3.40;;;27.90;99.90;;;;;;5098799;28;20481;-87
2021/07/25 10:08:20;;;;;;;20.70;3.30;;;28.10;99.90;;;;;;5099489;28;20453;-87
2021/07/25 10:10:51;;;;;;;32.93;3.20;;;28.40;99.90;;;;;;5106197;28;20457;-86
2021/07/25 10:13:34;;;;;;;22.23;3.27;;;28.50;99.90;;;;;;5106233;28;20484;-88
2021/07/25 10:16:45;;;;;;;30.73;3.37;;;28.70;99.90;;;;;;5104426;28;20509;-86
2021/07/25 10:19:18;;;;;;;49.00;4.13;;;28.70;99.90;;;;;;5048345;28;20538;-87
2021/07/25 10:21:45;;;;;;;46.03;3.90;;;28.80;99.90;;;;;;5086857;28;20459;-85
2021/07/25 10:24:14;;;;;;;43.13;3.40;;;28.90;99.90;;;;;;5086478;28;20427;-87
2021/07/25 10:26:46;;;;;;;50.80;7.10;;;28.80;99.90;;;;;;5087295;28;20447;-83
2021/07/25 10:29:18;;;;;;;50.20;6.57;;;28.80;99.90;;;;;;5087444;28;20478;-83
2021/07/25 10:31:48;;;;;;;47.60;5.40;;;28.80;99.90;;;;;;5086669;28;20487;-83
2021/07/25 10:34:32;;;;;;;49.00;5.80;;;28.90;99.90;;;;;;5086419;28;20451;-85
2021/07/25 10:37:06;;;;;;;58.73;15.83;;;29.00;99.90;;;;;;5086783;28;20446;-83
2021/07/25 10:39:37;;;;;;;134.03;122.63;;;29.00;99.90;;;;;;5084692;22;20519;-85
2021/07/25 10:42:34;;;;;;;71.40;36.27;;;29.10;99.90;;;;;;5063719;28;20448;-87
2021/07/25 10:45:12;;;;;;;136.67;124.70;;;29.20;99.90;;;;;;5067255;28;20555;-86
2021/07/25 10:47:39;;;;;;;320.87;301.60;;;29.30;99.90;;;;;;5064723;28;20456;-85
2021/07/25 10:53:13;;;;;;;113.40;102.80;;;29.70;99.90;;;;;;5045973;28;20730;-84
2021/07/25 10:55:46;;;;;;;54.57;11.50;;;29.80;99.90;;;;;;5031139;28;20465;-85
2021/07/25 10:58:24;;;;;;;449.87;425.40;;;30.00;99.90;;;;;;5027404;28;20457;-83
2021/07/25 11:00:54;;;;;;;315.73;296.63;;;29.90;99.90;;;;;;5046357;28;20460;-84
2021/07/25 11:03:41;;;;;;;63.20;30.57;;;29.20;99.90;;;;;;5043358;28;20441;-83
2021/07/25 11:06:29;;;;;;;189.43;176.37;;;28.70;99.90;;;;;;5045088;28;20588;-86
2021/07/25 11:08:56;;;;;;;259.27;243.07;;;27.90;99.90;;;;;;5040955;28;20480;-83
2021/07/25 11:11:56;;;;;;;497.93;470.83;;;27.50;99.90;;;;;;5047386;28;20488;-81
2021/07/25 11:17:55;;;;;;;1999.90;999.90;;;28.60;99.90;;;;;;5040295;28;20818;-84
2021/07/25 11:20:52;;;;;;;1999.90;999.90;;;29.20;99.90;;;;;;5046206;28;20440;-84
2021/07/25 11:23:37;;;;;;;1999.90;999.90;;;29.00;99.90;;;;;;5041067;28;20453;-84
2021/07/25 11:26:38;;;;;;;1999.90;999.90;;;29.10;99.90;;;;;;5044872;28;20491;-83
2021/07/25 11:29:12;;;;;;;1999.90;999.90;;;29.60;99.90;;;;;;5044805;28;20572;-86
2021/07/25 11:31:42;;;;;;;1999.90;999.90;;;29.40;99.90;;;;;;5044981;28;20515;-83
2021/07/25 11:34:33;;;;;;;1999.90;999.90;;;29.00;99.90;;;;;;5048562;28;20437;-86
2021/07/25 11:37:02;;;;;;;1999.90;999.90;;;29.00;99.90;;;;;;5044124;28;20472;-83
2021/07/25 11:39:30;;;;;;;1999.90;999.90;;;29.10;99.90;;;;;;5045239;28;20523;-86
2021/07/25 11:41:57;;;;;;;1999.90;999.90;;;28.90;99.90;;;;;;5045318;28;20508;-85
2021/07/25 11:44:26;;;;;;;1999.90;999.90;;;28.80;99.90;;;;;;5029271;28;20464;-84
2021/07/25 11:46:56;;;;;;;728.30;685.30;;;28.70;99.90;;;;;;5046187;28;20477;-84
2021/07/25 11:49:26;;;;;;;1999.90;999.90;;;28.70;99.90;;;;;;5046860;28;20473;-83
2021/07/25 11:52:02;;;;;;;1999.90;999.90;;;28.50;99.90;;;;;;5046882;28;20491;-85
2021/07/25 11:54:37;;;;;;;1999.90;999.90;;;28.30;99.90;;;;;;5046810;28;20472;-84
2021/07/25 11:57:08;;;;;;;1999.90;999.90;;;28.80;99.90;;;;;;5048604;28;20448;-85
2021/07/25 11:59:37;;;;;;;1999.90;999.90;;;29.40;99.90;;;;;;5046019;28;20895;-86
2021/07/25 12:02:07;;;;;;;1999.90;999.90;;;29.80;99.90;;;;;;5042077;28;20448;-85
2021/07/25 12:04:37;;;;;;;1999.90;999.90;;;29.50;99.90;;;;;;5045545;28;20962;-84
2021/07/25 12:07:13;;;;;;;1999.90;999.90;;;29.90;99.90;;;;;;5045311;28;20484;-85
2021/07/25 12:09:43;;;;;;;1999.90;999.90;;;30.40;99.90;;;;;;5044896;28;20472;-84
2021/07/25 12:12:12;;;;;;;1999.90;999.90;;;30.50;99.90;;;;;;5044650;28;20902;-85
2021/07/25 12:14:41;;;;;;;1999.90;999.90;;;30.50;99.90;;;;;;5040731;28;20466;-86
2021/07/25 12:17:09;;;;;;;1999.90;999.90;;;30.40;99.90;;;;;;5043083;28;20499;-85
2021/07/25 12:19:39;;;;;;;1999.90;999.90;;;30.40;99.90;;;;;;5043908;28;20496;-84
2021/07/25 12:22:10;;;;;;;1999.90;999.90;;;30.10;99.90;;;;;;5044792;28;20484;-85
2021/07/25 12:24:38;;;;;;;1999.90;999.90;;;29.80;99.90;;;;;;5034053;28;20476;-85
2021/07/25 12:27:06;;;;;;;1999.90;999.90;;;29.80;99.90;;;;;;5029163;28;20480;-85
2021/07/25 12:29:44;;;;;;;1999.90;999.90;;;30.20;99.90;;;;;;5033525;28;20493;-84
2021/07/25 12:32:30;;;;;;;1999.90;999.90;;;30.20;99.90;;;;;;5036373;28;20460;-83
2021/07/25 12:35:17;;;;;;;1999.90;999.90;;;30.10;99.90;;;;;;5035758;28;20476;-84
2021/07/25 12:37:54;;;;;;;1999.90;999.90;;;30.50;99.90;;;;;;5025610;28;20475;-84
2021/07/25 12:40:35;;;;;;;1999.90;999.90;;;30.20;99.90;;;;;;5044910;28;20452;-83
2021/07/25 12:43:09;;;;;;;1999.90;999.90;;;30.00;99.90;;;;;;5041469;28;20440;-84
2021/07/25 12:45:42;;;;;;;1999.90;999.90;;;29.80;99.90;;;;;;5049875;28;20457;-84
2021/07/25 12:48:28;;;;;;;1999.90;999.90;;;30.20;99.90;;;;;;5043436;28;20493;-85
2021/07/25 12:51:00;;;;;;;1999.90;999.90;;;30.00;99.90;;;;;;5079418;22;20852;-85
2021/07/25 12:53:41;;;;;;;1999.90;999.90;;;29.50;99.90;;;;;;5072883;28;20484;-86
2021/07/25 12:56:09;;;;;;;1999.90;999.90;;;28.90;99.90;;;;;;5072763;28;20522;-86
2021/07/25 12:58:41;;;;;;;1999.90;999.90;;;28.60;99.90;;;;;;5072808;28;20525;-85
2021/07/25 13:03:59;;;;;;;1999.90;999.90;;;28.40;99.90;;;;;;5091928;28;20454;-86
2021/07/25 13:06:29;;;;;;;1999.90;999.90;;;28.30;99.90;;;;;;5083408;28;20482;-86
2021/07/25 13:08:59;;;;;;;1999.90;999.90;;;28.00;99.90;;;;;;5074569;28;20450;-86
2021/07/25 13:11:27;;;;;;;1999.90;999.90;;;27.80;99.90;;;;;;5082225;28;20455;-85
2021/07/25 13:13:56;;;;;;;1999.90;999.90;;;27.60;99.90;;;;;;5072224;28;20568;-86
2021/07/25 13:16:23;;;;;;;1999.90;999.90;;;27.90;99.90;;;;;;5072019;28;20447;-86
2021/07/25 13:18:52;;;;;;;1999.90;999.90;;;28.90;99.90;;;;;;5071561;28;20457;-86
2021/07/25 13:21:19;;;;;;;1999.90;999.90;;;29.70;99.90;;;;;;5088745;28;20460;-86
2021/07/25 13:23:48;;;;;;;118.50;105.97;;;30.10;99.90;;;;;;5094035;28;20545;-85
2021/07/25 13:26:15;;;;;;;737.53;374.50;;;30.70;99.90;;;;;;5094377;28;20478;-85
2021/07/25 13:28:42;;;;;;;1999.90;999.90;;;31.00;99.90;;;;;;5093550;28;20452;-86
2021/07/25 13:31:10;;;;;;;225.33;210.07;;;31.40;99.90;;;;;;5093883;28;20474;-87
2021/07/25 13:33:37;;;;;;;448.53;423.03;;;31.70;99.90;;;;;;5094106;28;20442;-87
2021/07/25 13:36:06;;;;;;;622.40;586.87;;;31.90;99.90;;;;;;5073527;28;20447;-86
2021/07/25 13:38:34;;;;;;;208.13;193.80;;;32.20;99.90;;;;;;5072060;28;20447;-87
2021/07/25 13:41:02;;;;;;;84.53;69.20;;;32.60;99.90;;;;;;5072230;28;20471;-87
2021/07/25 13:43:29;;;;;;;107.63;97.00;;;32.60;99.90;;;;;;5072134;28;20545;-87
2021/07/25 13:45:58;;;;;;;168.03;155.47;;;33.10;99.90;;;;;;5088275;28;20486;-86
2021/07/25 13:48:26;;;;;;;481.63;456.23;;;33.00;99.90;;;;;;5093860;28;20450;-86
2021/07/25 13:50:53;;;;;;;196.57;183.20;;;32.20;99.90;;;;;;5086201;28;20474;-87
2021/07/25 13:53:20;;;;;;;414.97;392.23;;;31.40;99.40;;;;;;5074719;28;20447;-87
2021/07/25 13:55:47;;;;;;;382.77;360.53;;;30.80;99.90;;;;;;5074422;28;20450;-87
2021/07/25 13:58:15;;;;;;;536.30;506.93;;;30.60;99.90;;;;;;5074902;28;20545;-86
2021/07/25 14:00:42;;;;;;;327.47;308.90;;;30.90;99.90;;;;;;5075773;28;20475;-86
2021/07/25 14:03:08;;;;;;;385.43;364.23;;;31.30;99.90;;;;;;5075996;28;20461;-86
2021/07/25 14:05:36;;;;;;;917.83;567.47;;;31.30;99.90;;;;;;5075360;28;20450;-87
2021/07/25 14:08:04;;;;;;;1377.87;706.83;;;31.10;99.90;;;;;;5089428;28;20454;-85
2021/07/25 14:10:32;;;;;;;416.33;393.80;;;31.30;99.90;;;;;;5096435;28;20553;-86
2021/07/25 14:12:59;;;;;;;599.50;565.90;;;31.50;99.90;;;;;;5096732;28;20438;-86
2021/07/25 14:15:28;;;;;;;604.23;570.43;;;31.70;99.90;;;;;;5095535;28;20460;-89
2021/07/25 14:17:56;;;;;;;409.93;387.57;;;32.10;99.90;;;;;;5099448;28;20481;-87
2021/07/25 14:20:28;;;;;;;72.30;47.43;;;32.50;99.90;;;;;;5094427;28;20989;-87
2021/07/25 14:22:55;;;;;;;73.40;49.40;;;32.60;99.90;;;;;;5094661;28;20451;-87
2021/07/25 14:25:22;;;;;;;71.90;39.77;;;32.60;99.90;;;;;;5097486;28;20450;-88
2021/07/25 14:27:49;;;;;;;191.27;177.80;;;32.80;99.90;;;;;;5095634;28;20492;-88
2021/07/25 14:30:16;;;;;;;266.30;250.17;;;33.10;99.90;;;;;;5094134;28;20527;-84
2021/07/25 14:32:44;;;;;;;49.90;4.67;;;33.30;99.90;;;;;;5100147;28;20835;-86
2021/07/25 14:35:12;;;;;;;52.97;7.50;;;33.30;99.90;;;;;;5095750;28;20476;-87
2021/07/25 14:37:40;;;;;;;61.03;18.13;;;33.10;99.70;;;;;;5097122;28;20891;-87
2021/07/25 14:40:09;;;;;;;63.83;17.70;;;33.30;99.90;;;;;;5091115;28;20470;-87
2021/07/25 14:42:36;;;;;;;40.53;2.20;;;33.50;99.90;;;;;;5094496;28;20460;-87
2021/07/25 14:45:05;;;;;;;39.33;2.60;;;33.60;95.40;;;;;;5099880;28;20434;-89
2021/07/25 14:47:33;;;;;;;37.43;2.30;;;33.70;95.60;;;;;;5095032;28;20488;-86
2021/07/25 14:50:02;;;;;;;40.70;2.30;;;33.80;96.00;;;;;;5094209;28;20478;-87
2021/07/25 14:52:28;;;;;;;44.40;2.50;;;33.90;96.20;;;;;;5093862;28;20454;-87
2021/07/25 14:54:55;;;;;;;37.57;2.50;;;34.00;95.90;;;;;;5097696;28;20454;-88
2021/07/25 14:57:22;;;;;;;40.27;3.57;;;33.50;94.30;;;;;;5082064;28;20465;-88
2021/07/25 14:59:49;;;;;;;44.00;2.50;;;33.40;93.70;;;;;;5072369;28;20979;-88
2021/07/25 15:02:16;;;;;;;45.40;4.97;;;33.30;97.60;;;;;;5076409;28;20451;-88
2021/07/25 15:04:43;;;;;;;38.30;2.53;;;33.20;94.80;;;;;;5075525;28;20443;-86
2021/07/25 15:07:11;;;;;;;40.70;2.23;;;32.60;93.80;;;;;;5076982;28;20486;-88
2021/07/25 15:09:38;;;;;;;54.33;12.13;;;32.00;92.40;;;;;;5073926;28;20562;-87
2021/07/25 15:12:06;;;;;;;125.50;114.43;;;31.30;95.60;;;;;;5085440;28;20461;-88
2021/07/25 15:14:33;;;;;;;96.07;85.67;;;30.70;99.90;;;;;;5097002;28;20447;-88
2021/07/25 15:17:01;;;;;;;91.67;79.80;;;30.10;99.90;;;;;;5097086;28;20435;-88
2021/07/25 15:19:31;;;;;;;750.37;408.37;;;29.50;99.90;;;;;;5089238;28;20521;-86
2021/07/25 15:21:58;;;;;;;1999.90;999.90;;;29.10;99.90;;;;;;5072677;28;20550;-87
2021/07/25 15:24:26;;;;;;;1999.90;999.90;;;28.70;99.90;;;;;;5072965;28;20453;-86
2021/07/25 15:26:53;;;;;;;119.20;100.73;;;28.30;99.90;;;;;;5072248;28;20483;-86
2021/07/25 15:29:23;;;;;;;1999.90;999.90;;;27.90;99.90;;;;;;5077578;28;20471;-86
2021/07/25 15:31:50;;;;;;;1999.90;999.90;;;27.60;99.90;;;;;;5074508;28;20975;-86
2021/07/25 15:34:17;;;;;;;1999.90;999.90;;;27.30;99.90;;;;;;5076311;28;20446;-87
2021/07/25 15:36:44;;;;;;;1999.90;999.90;;;27.20;99.90;;;;;;5075281;28;20927;-86
2021/07/25 15:39:11;;;;;;;1999.90;999.90;;;27.00;99.90;;;;;;5073333;28;20455;-86
2021/07/25 15:41:39;;;;;;;1999.90;999.90;;;26.80;99.90;;;;;;5073418;28;20447;-86
2021/07/25 15:44:07;;;;;;;1999.90;999.90;;;26.40;99.90;;;;;;5073816;28;20883;-87
2021/07/25 15:46:34;;;;;;;1999.90;999.90;;;26.20;99.90;;;;;;5074370;28;20487;-87
2021/07/25 15:49:01;;;;;;;1999.90;999.90;;;26.10;99.90;;;;;;5071621;28;20454;-85
2021/07/25 15:51:28;;;;;;;1999.90;999.90;;;25.80;99.90;;;;;;5073174;28;20453;-85
2021/07/25 15:53:54;;;;;;;157.33;142.20;;;25.50;99.90;;;;;;5072801;28;20573;-85
2021/07/25 15:56:22;;;;;;;296.13;274.80;;;25.30;99.90;;;;;;5073157;28;20454;-84
2021/07/25 15:58:51;;;;;;;675.67;636.03;;;25.20;99.90;;;;;;5072061;28;20459;-85